createdAt,value
2023-05-18T00:01:12.567Z,1.80
2023-05-18T00:06:34.943Z,2.20
2023-05-18T00:11:58.486Z,2.00
2023-05-18T00:17:23.740Z,2.20
2023-05-18T00:22:48.301Z,2.17
2023-05-18T00:28:12.783Z,2.23
2023-05-18T00:33:35.777Z,2.47
2023-05-18T00:38:59.058Z,2.10
2023-05-18T00:44:21.473Z,2.43
2023-05-18T00:49:43.909Z,2.20
2023-05-18T00:55:07.336Z,2.30
2023-05-18T01:00:29.965Z,2.53
2023-05-18T01:05:55.828Z,1.90
2023-05-18T01:11:24.515Z,1.87
2023-05-18T01:17:26.499Z,1.90
2023-05-18T01:22:51.707Z,2.20
2023-05-18T01:28:17.285Z,2.40
2023-05-18T01:33:40.032Z,1.60
2023-05-18T01:39:02.786Z,1.83
2023-05-18T01:44:33.029Z,2.23
2023-05-18T01:50:02.830Z,1.90
2023-05-18T01:55:30.933Z,1.73
2023-05-18T02:00:53.696Z,1.87
2023-05-18T02:06:16.130Z,1.80
2023-05-18T02:11:38.435Z,1.80
2023-05-18T02:17:01.130Z,2.03
2023-05-18T02:22:23.674Z,2.00
2023-05-18T02:27:45.937Z,1.57
2023-05-18T02:33:11.219Z,1.73
2023-05-18T02:38:36.974Z,1.60
2023-05-18T02:43:59.292Z,1.93
2023-05-18T02:49:22.227Z,1.43
2023-05-18T02:54:47.600Z,1.90
2023-05-18T03:00:18.185Z,2.17
2023-05-18T03:05:41.370Z,2.10
2023-05-18T03:11:04.424Z,1.70
2023-05-18T03:16:28.876Z,1.77
2023-05-18T03:21:51.915Z,2.00
2023-05-18T03:27:16.692Z,2.57
2023-05-18T03:32:41.626Z,1.93
2023-05-18T03:38:04.321Z,1.70
2023-05-18T03:43:26.875Z,1.70
2023-05-18T03:48:49.751Z,2.20
2023-05-18T03:54:16.896Z,1.70
2023-05-18T03:59:39.143Z,2.00
2023-05-18T04:05:02.221Z,1.80
2023-05-18T04:10:24.504Z,1.80
2023-05-18T04:15:47.798Z,2.00
2023-05-18T04:21:11.919Z,2.33
2023-05-18T04:26:36.704Z,3.10
2023-05-18T04:32:02.182Z,2.47
2023-05-18T04:37:24.698Z,2.90
2023-05-18T04:42:48.619Z,2.50
2023-05-18T04:48:22.500Z,2.40
2023-05-18T04:53:46.178Z,2.47
2023-05-18T04:59:11.040Z,2.03
2023-05-18T05:04:33.455Z,2.17
2023-05-18T05:09:55.916Z,2.20
2023-05-18T05:15:19.351Z,2.20
2023-05-18T05:20:41.943Z,2.47
2023-05-18T05:26:04.504Z,2.10
2023-05-18T05:31:27.668Z,1.93
2023-05-18T05:36:50.348Z,1.60
2023-05-18T05:42:13.120Z,1.60
2023-05-18T05:47:36.280Z,2.07
2023-05-18T05:52:58.706Z,1.80
2023-05-18T05:58:21.992Z,1.50
2023-05-18T06:03:49.622Z,1.83
2023-05-18T06:09:11.967Z,1.50
2023-05-18T06:14:34.436Z,1.60
2023-05-18T06:19:58.580Z,1.53
2023-05-18T06:25:22.411Z,2.10
2023-05-18T06:31:03.688Z,1.63
2023-05-18T06:36:33.219Z,1.87
2023-05-18T06:41:55.557Z,1.67
2023-05-18T06:47:21.667Z,1.80
2023-05-18T06:52:45.021Z,1.73
2023-05-18T06:58:07.582Z,1.83
2023-05-18T07:03:30.783Z,1.57
2023-05-18T07:08:53.315Z,1.50
2023-05-18T07:14:15.898Z,2.00
2023-05-18T07:19:38.232Z,2.10
2023-05-18T07:25:01.585Z,1.90
2023-05-18T07:30:28.595Z,1.70
2023-05-18T07:35:50.976Z,1.60
2023-05-18T07:41:13.515Z,1.67
2023-05-18T07:46:35.823Z,1.50
2023-05-18T07:51:58.416Z,1.60
2023-05-18T07:57:23.096Z,1.23
2023-05-18T08:02:46.216Z,1.60
2023-05-18T08:08:11.984Z,1.43
2023-05-18T08:13:34.635Z,0.90
2023-05-18T08:18:57.185Z,1.80
2023-05-18T08:24:19.587Z,1.40
2023-05-18T08:29:41.801Z,1.20
2023-05-18T08:35:06.037Z,1.40
2023-05-18T08:40:37.100Z,1.77
2023-05-18T08:46:06.682Z,1.43
2023-05-18T08:51:33.583Z,1.60
2023-05-18T08:56:57.417Z,1.70
2023-05-18T09:02:22.318Z,1.17
2023-05-18T09:07:46.348Z,3.80
2023-05-18T09:13:11.479Z,1.83
2023-05-18T09:18:37.054Z,1.77
2023-05-18T09:24:01.544Z,1.90
2023-05-18T09:29:24.535Z,1.53
2023-05-18T09:34:48.731Z,1.70
2023-05-18T09:40:11.674Z,1.63
2023-05-18T09:45:39.340Z,2.10
2023-05-18T09:51:04.668Z,1.70
2023-05-18T09:56:27.777Z,1.60
2023-05-18T10:02:03.102Z,1.80
2023-05-18T10:07:26.066Z,1.33
2023-05-18T10:12:54.914Z,1.57
2023-05-18T10:18:23.009Z,1.63
2023-05-18T10:23:48.358Z,1.60
2023-05-18T10:29:11.424Z,1.97
2023-05-18T10:34:35.194Z,1.73
2023-05-18T10:40:00.699Z,1.53
2023-05-18T10:45:24.806Z,1.50
2023-05-18T10:50:53.005Z,1.30
2023-05-18T10:56:18.800Z,1.20
2023-05-18T11:01:42.804Z,1.50
2023-05-18T11:07:05.754Z,1.55
2023-05-18T11:12:31.661Z,1.52
2023-05-18T11:18:14.098Z,1.40
2023-05-18T11:23:38.645Z,1.40
2023-05-18T11:29:01.569Z,1.35
2023-05-18T11:34:45.209Z,1.85
2023-05-18T11:40:13.650Z,1.50
2023-05-18T11:45:36.467Z,1.65
2023-05-18T11:50:59.200Z,1.35
2023-05-18T11:56:21.537Z,1.35
2023-05-18T12:01:44.307Z,1.67
2023-05-18T12:07:08.084Z,1.58
2023-05-18T12:12:31.123Z,1.50
2023-05-18T12:17:53.479Z,2.00
2023-05-18T12:23:16.223Z,1.70
2023-05-18T12:28:39.021Z,1.63
2023-05-18T12:34:03.777Z,2.05
2023-05-18T12:39:28.597Z,1.92
2023-05-18T12:44:51.957Z,1.48
2023-05-18T12:50:14.989Z,1.67
2023-05-18T12:55:39.536Z,1.75
2023-05-18T13:01:11.722Z,1.58
2023-05-18T13:06:38.091Z,1.50
2023-05-18T13:12:07.830Z,1.45
2023-05-18T13:17:30.932Z,1.40
2023-05-18T13:23:00.745Z,1.20
2023-05-18T13:28:23.395Z,1.45
2023-05-18T13:33:46.646Z,1.40
2023-05-18T13:39:09.838Z,1.00
2023-05-18T13:44:32.145Z,1.15
2023-05-18T13:49:54.537Z,1.60
2023-05-18T13:55:17.271Z,1.40
2023-05-18T14:00:40.404Z,1.80
2023-05-18T14:06:02.874Z,1.17
2023-05-18T14:11:25.467Z,1.40
2023-05-18T14:16:48.630Z,1.30
2023-05-18T14:22:11.030Z,0.93
2023-05-18T14:27:33.409Z,1.08
2023-05-18T14:32:56.000Z,1.50
2023-05-18T14:38:18.349Z,1.05
2023-05-18T14:43:40.893Z,1.30
2023-05-18T14:49:03.310Z,1.33
2023-05-18T14:54:25.853Z,1.30
2023-05-18T14:59:57.068Z,1.60
2023-05-18T15:05:19.488Z,1.50
2023-05-18T15:10:42.103Z,1.67
2023-05-18T15:16:07.869Z,1.10
2023-05-18T15:21:33.150Z,1.08
2023-05-18T15:26:56.186Z,1.20
2023-05-18T15:32:18.624Z,1.42
2023-05-18T15:37:41.109Z,1.40
2023-05-18T15:43:03.909Z,6.90
2023-05-18T15:48:26.523Z,2.60
2023-05-18T15:53:49.094Z,2.25
2023-05-18T15:59:11.400Z,2.40
2023-05-18T16:04:33.956Z,2.95
2023-05-18T16:09:56.200Z,3.05
2023-05-18T16:15:20.255Z,2.03
2023-05-18T16:20:42.462Z,1.77
2023-05-18T16:26:05.732Z,1.38
2023-05-18T16:31:28.140Z,1.45
2023-05-18T16:36:50.626Z,1.25
2023-05-18T16:42:13.441Z,2.63
2023-05-18T16:47:35.847Z,1.75
2023-05-18T16:52:58.344Z,1.88
2023-05-18T16:58:21.080Z,1.35
2023-05-18T17:03:43.518Z,1.52
2023-05-18T17:09:06.543Z,1.67
2023-05-18T17:14:29.386Z,1.67
2023-05-18T17:19:51.848Z,1.40
2023-05-18T17:25:14.439Z,1.23
2023-05-18T17:30:36.680Z,1.20
2023-05-18T17:35:58.989Z,1.30
2023-05-18T17:41:22.337Z,1.25
2023-05-18T17:46:46.100Z,1.40
2023-05-18T17:52:08.457Z,1.83
2023-05-18T17:57:32.194Z,2.00
2023-05-18T18:02:55.482Z,1.87
2023-05-18T18:08:18.187Z,2.30
2023-05-18T18:13:40.353Z,2.30
2023-05-18T18:19:02.977Z,2.17
2023-05-18T18:24:25.801Z,2.60
2023-05-18T18:29:49.184Z,2.63
2023-05-18T18:35:11.832Z,2.93
2023-05-18T18:40:35.058Z,3.40
2023-05-18T18:45:57.601Z,3.23
2023-05-18T18:51:20.352Z,3.13
2023-05-18T18:56:44.020Z,3.60
2023-05-18T19:02:06.532Z,3.90
2023-05-18T19:07:29.204Z,3.73
2023-05-18T19:12:51.522Z,3.50
2023-05-18T19:18:14.905Z,3.80
2023-05-18T19:23:37.616Z,4.13
2023-05-18T19:28:59.948Z,3.37
2023-05-18T19:34:23.562Z,4.20
2023-05-18T19:39:46.241Z,3.77
2023-05-18T19:45:09.054Z,4.33
2023-05-18T19:50:32.374Z,4.93
2023-05-18T19:55:54.744Z,3.60
2023-05-18T20:01:18.263Z,2.20
2023-05-18T20:06:40.631Z,2.20
2023-05-18T20:12:03.414Z,1.93
2023-05-18T20:17:26.034Z,2.53
2023-05-18T20:22:48.650Z,2.20
2023-05-18T20:28:10.987Z,2.13
2023-05-18T20:33:34.418Z,2.00
2023-05-18T20:38:56.644Z,2.40
2023-05-18T20:44:22.955Z,2.23
2023-05-18T20:49:45.297Z,2.70
2023-05-18T20:55:09.237Z,3.00
2023-05-18T21:00:32.000Z,3.33
2023-05-18T21:05:54.781Z,3.27
2023-05-18T21:11:19.266Z,2.33
2023-05-18T21:16:41.993Z,2.50
2023-05-18T21:22:04.617Z,2.13
2023-05-18T21:27:27.161Z,1.90
2023-05-18T21:32:49.791Z,1.70
2023-05-18T21:38:12.541Z,1.83
2023-05-18T21:43:34.944Z,1.63
2023-05-18T21:48:57.380Z,1.87
2023-05-18T21:54:20.152Z,1.73
2023-05-18T21:59:42.364Z,1.87
2023-05-18T22:05:05.190Z,1.50
2023-05-18T22:10:28.086Z,1.50
2023-05-18T22:15:50.621Z,1.60
2023-05-18T22:21:13.105Z,1.43
2023-05-18T22:26:35.371Z,1.83
2023-05-18T22:31:57.908Z,1.63
2023-05-18T22:37:20.370Z,1.70
2023-05-18T22:42:42.827Z,1.97
2023-05-18T22:48:05.317Z,1.77
2023-05-18T22:53:29.241Z,1.60
2023-05-18T22:58:51.732Z,1.80
2023-05-18T23:04:18.122Z,1.63
2023-05-18T23:09:40.564Z,1.63
2023-05-18T23:15:04.091Z,1.70
2023-05-18T23:20:26.217Z,1.83
2023-05-18T23:25:49.328Z,1.37
2023-05-18T23:31:11.940Z,1.67
2023-05-18T23:36:37.063Z,1.93
2023-05-18T23:42:00.717Z,2.40
2023-05-18T23:47:23.303Z,1.77
2023-05-18T23:52:47.292Z,1.77
2023-05-18T23:58:10.198Z,1.73
